• Join FlightAware (Why Join?)
  • Login
  • US Flag 
08:14PM EDT


 

Airport Tracker/Info


-or-


 

Live Flight TrackerFlight Track Log ✈ CHQ4986 ✈ 26-Apr-2013 ✈ KATL - KCLE

Flight Track Log - Related Links

Times and Time Zones

All times are in EDT time to prevent confusion due to time zone crossing. See the CHQ4986 flight status page for this flight to view local times or setup timezone preferences in your user account.

Time Position Orientation Groundspeed Altitude Reporting Facility
EDT Latitude Longitude Course Direction KTS MPH feet Rate Location/Type
10:04AM 33.6583 -84.3258 North 404 465 4,000  Level Atlanta Center
10:05AM 33.6731 -84.2411 78° East 307 353 5,900 1,800 Climbing Atlanta Center
10:06AM 33.8721 -84.2054 320° Northwest  Level FlightAware Approximate
10:06AM 33.7211 -84.1836 45° Northeast 270 311 7,700  Level Atlanta Center
10:07AM 33.9573 -84.2667 North  Level FlightAware Approximate
10:07AM 33.8000 -84.1833 360° North 261 300 10,000  Level Atlanta TRACON
10:08AM 34.0609 -84.2667 North  Level FlightAware Approximate
10:08AM 33.8667 -84.2167 337° Northwest 300 345 10,300  Level Atlanta TRACON
10:09AM 34.1645 -84.2667 North  Level FlightAware Approximate
10:10AM 34.0194 -84.2769 342° North 322 371 12,700  Level Atlanta Center
10:11AM 34.1133 -84.2797 359° North 327 376 14,100 1,380 Climbing Atlanta Center
10:12AM 34.2094 -84.2800 360° North 335 386 15,500 1,440 Climbing Atlanta Center
10:13AM 34.3033 -84.2778 North 335 386 17,000 1,260 Climbing Atlanta Center
10:14AM 34.3994 -84.2553 11° North 335 386 18,100 840 Climbing Atlanta Center
10:15AM 34.4953 -84.2328 11° North 350 403 18,700 780 Climbing Atlanta Center
10:16AM 34.5956 -84.2103 10° North 361 415 19,700 1,020 Climbing Atlanta Center
10:17AM 34.7083 -84.1853 10° North 361 415 20,800 1,020 Climbing Atlanta Center
10:18AM 34.8128 -84.1603 11° North 367 422 21,800 960 Climbing Atlanta Center
10:19AM 34.9169 -84.1375 10° North 373 429 22,800 960 Climbing Atlanta Center
10:20AM 35.0236 -84.1097 12° North 378 435 23,800 960 Climbing Atlanta Center
10:21AM 35.1300 -84.0844 11° North 378 435 24,800 1,080 Climbing Atlanta Center
10:22AM 35.2364 -84.0567 12° North 378 435 26,000 1,200 Climbing Atlanta Center
10:23AM 35.3406 -84.0336 10° North 383 441 27,200 1,200 Climbing Atlanta Center
10:24AM 35.4428 -84.0081 12° North 383 441 28,400 1,200 Climbing Atlanta Center
10:25AM 35.5450 -83.9672 18° North 377 434 29,600 1,200 Climbing Atlanta Center
10:26AM 35.6389 -83.9136 25° Northeast 371 427 30,800 660 Climbing Atlanta Center
10:27AM 35.7369 -83.8569 25° Northeast 371 427 31,000 180 Climbing Atlanta Center
10:28AM 35.8411 -83.7953 26° Northeast 392 451 31,200 600 Climbing Atlanta Center
10:29AM 35.9453 -83.7386 24° Northeast 404 465 32,300 1,140 Climbing Atlanta Center
10:30AM 36.0494 -83.6767 26° Northeast 404 465 33,500 1,200 Climbing Atlanta Center
10:31AM 36.1453 -83.6197 26° Northeast 399 459 34,700 1,140 Climbing Atlanta Center
10:32AM 36.2450 -83.5625 25° Northeast 394 453 35,800 600 Climbing Atlanta Center
10:33AM 36.3408 -83.5025 27° Northeast 383 441 36,000 180 Climbing Atlanta Center
10:34AM 36.4125 -83.4603 25° Northeast 397 457 36,100 300 Climbing Indianapolis Center
10:35AM 36.5169 -83.3986 25° Northeast 411 473 36,600 420 Climbing Indianapolis Center
10:36AM 36.6219 -83.3389 25° Northeast 413 475 37,000 180 Climbing Indianapolis Center
10:37AM 36.7322 -83.3175 North 399 459 37,000  Level Indianapolis Center
10:38AM 36.8436 -83.3039 North 399 459 37,000  Level Indianapolis Center
10:39AM 36.9575 -83.2867 North 406 467 37,000  Level Indianapolis Center
10:40AM 37.0717 -83.2714 North 407 468 37,000  Level Indianapolis Center
10:41AM 37.1856 -83.2550 North 409 471 37,000  Level Indianapolis Center
10:42AM 37.3106 -83.1719 28° Northeast 440 506 37,000  Level Indianapolis Center
10:43AM 37.4117 -83.0944 31° Northeast 426 490 37,000  Level Indianapolis Center
10:44AM 37.5139 -83.0153 32° Northeast 429 494 37,000  Level Indianapolis Center
10:45AM 37.6139 -82.9342 33° Northeast 427 491 37,000  Level Indianapolis Center
10:46AM 37.7128 -82.8572 32° Northeast 418 481 37,000  Level Indianapolis Center
10:47AM 37.8136 -82.7803 31° Northeast 420 483 37,000  Level Indianapolis Center
10:48AM 37.9147 -82.6908 35° Northeast 438 504 37,000  Level Indianapolis Center
10:49AM 38.0253 -82.5656 42° Northeast 453 521 37,000  Level Indianapolis Center
10:50AM 38.1114 -82.4711 41° Northeast 439 505 37,000  Level Indianapolis Center
10:51AM 38.2011 -82.3672 42° Northeast 435 501 37,000  Level Indianapolis Center
10:52AM 38.3047 -82.3169 21° North 396 456 37,000  Level Indianapolis Center
10:53AM 38.4128 -82.3092 North 388 447 37,000  Level Indianapolis Center
10:54AM 38.5233 -82.2989 North 395 455 37,000 -1,260 Level Indianapolis Center
10:56AM 38.6575 -82.2886 North 393 452 34,500 -1,500 Descending Indianapolis Center
10:57AM 38.7608 -82.2792 North 377 434 34,000 -300 Descending Indianapolis Center
10:58AM 38.8644 -82.2700 North 372 428 34,000  Level Indianapolis Center
10:59AM 38.9719 -82.2617 North 383 441 34,000  Level Indianapolis Center
11:00AM 39.0817 -82.2506 North 391 450 34,000  Level Indianapolis Center
11:01AM 39.1914 -82.2414 North 393 452 34,000 -660 Level Indianapolis Center
11:02AM 39.3003 -82.2306 North 391 450 32,700 -1,620 Descending Indianapolis Center
11:03AM 39.4089 -82.2214 North 389 448 30,700 -2,160 Descending Indianapolis Center
11:04AM 39.5297 -82.2114 North 381 438 28,300 -2,280 Descending Indianapolis Center
11:05AM 39.6372 -82.2014 North 383 441 26,100 -2,100 Descending Indianapolis Center
11:06AM 39.7508 -82.1914 North 403 464 24,100 -1,260 Descending Indianapolis Center
11:07AM 39.8689 -82.1808 North 419 482 23,600 -780 Descending Indianapolis Center
11:08AM 39.9869 -82.1697 North 422 486 22,600 -1,020 Descending Indianapolis Center
11:09AM 40.1019 -82.1592 North 413 475 21,600 -1,080 Descending Indianapolis Center
11:10AM 40.2367 -82.1478 North 413 475 20,400 -1,020 Descending Indianapolis Center
11:11AM 40.3483 -82.1378 North 419 482 19,500 -1,080 Descending Indianapolis Center
11:12AM 40.4608 -82.1206 North 407 468 18,300 -960 Descending Indianapolis Center
11:12AM 40.5158 -82.0742 33° Northeast 396 456 18,100 -1,140 Descending Cleveland Center
11:13AM 40.6025 -81.9861 38° Northeast 397 457 16,700 -1,440 Descending Cleveland Center
11:14AM 40.6300 -81.9619 34° Northeast 386 444 16,200 -1,740 Descending Cleveland Center
11:14AM 40.6869 -81.9003 39° Northeast 391 450 15,000 -1,980 Descending Cleveland Center
11:15AM 40.7567 -81.8303 37° Northeast 382 440 13,200 -2,100 Descending Cleveland Center
11:16AM 40.8389 -81.7467 38° Northeast 363 418 11,200 -1,620 Descending Cleveland Center
11:17AM 40.9306 -81.7483 359° North 322 371 10,000 -540 Descending Cleveland Center
11:19AM 41.0450 -81.7614 355° North 320 368 10,000  Level Cleveland Center
11:19AM 41.1075 -81.7625 359° North 323 372 10,000  Level Cleveland Center
11:20AM 41.1953 -81.7531 North 318 366 10,000 -300 Level Cleveland Center
11:21AM 41.2808 -81.7408 North 254 292 9,400 -1,320 Descending Cleveland Center
11:22AM 41.3456 -81.7200 14° North 251 289 7,400 -1,920 Descending Cleveland Center
11:23AM 41.4211 -81.6853 19° North 252 290 5,500 -1,620 Descending Cleveland Center
11:25AM 41.4778 -81.6336 34° Northeast 238 274 4,000 -1,440 Descending Cleveland Center